< < Back
Terminal Aerodrome Forecast


Current Version              Previous Versions:   1  2  3  4  5  6  7  8  9  

Terminal Aerodrome Forecast

126
FTUS44 KBMX 262338
TAFANB
TAF
KANB 262338Z 2700/2724 VRB05KT P6SM VCTS SCT050CB BKN130
      TEMPO 2701/2702 VRB10G20KT 5SM -TSRA BKN050CB
     FM270200 VRB02KT P6SM BKN250
     FM271500 30006KT P6SM SCT035 SCT250
     FM271900 30007KT P6SM VCTS BKN050CB=

Latest METAR

938
SAUS70 KWBC 271600 RRQ
MTRANB
METAR KANB 271553Z AUTO VRB04KT 10SM CLR 31/19 A3010 RMK AO2 SLP181
T03110189


USA.gov is the U.S. government's official web portal to all federal, state and local government web resources and services.